sensor_id;sensor_type;location;lat;lon;timestamp;P1;durP1;ratioP1;P2;durP2;ratioP2
53867;SDS011;41577;47.470;19.080;2023-02-18T00:00:02;18.65;;;11.05;;
53867;SDS011;41577;47.470;19.080;2023-02-18T00:00:16;18.40;;;11.10;;
53867;SDS011;41577;47.470;19.080;2023-02-18T00:00:28;19.13;;;11.18;;
53867;SDS011;41577;47.470;19.080;2023-02-18T00:00:39;24.02;;;11.10;;
53867;SDS011;41577;47.470;19.080;2023-02-18T00:00:50;25.77;;;10.88;;
53867;SDS011;41577;47.470;19.080;2023-02-18T00:01:01;24.20;;;10.95;;
53867;SDS011;41577;47.470;19.080;2023-02-18T00:01:12;20.80;;;11.20;;
53867;SDS011;41577;47.470;19.080;2023-02-18T00:01:26;17.38;;;11.20;;
53867;SDS011;41577;47.470;19.080;2023-02-18T00:01:37;18.88;;;11.63;;
53867;SDS011;41577;47.470;19.080;2023-02-18T00:01:49;15.73;;;11.52;;
53867;SDS011;41577;47.470;19.080;2023-02-18T00:02:00;15.23;;;11.48;;
53867;SDS011;41577;47.470;19.080;2023-02-18T00:02:11;16.23;;;10.90;;
53867;SDS011;41577;47.470;19.080;2023-02-18T00:02:22;16.20;;;10.60;;
53867;SDS011;41577;47.470;19.080;2023-02-18T00:02:33;14.95;;;10.57;;
53867;SDS011;41577;47.470;19.080;2023-02-18T00:02:44;18.00;;;10.60;;
53867;SDS011;41577;47.470;19.080;2023-02-18T00:02:56;18.63;;;10.57;;
53867;SDS011;41577;47.470;19.080;2023-02-18T00:03:07;18.40;;;10.57;;
53867;SDS011;41577;47.470;19.080;2023-02-18T00:03:18;15.15;;;10.35;;
53867;SDS011;41577;47.470;19.080;2023-02-18T00:03:29;12.68;;;9.85;;
53867;SDS011;41577;47.470;19.080;2023-02-18T00:03:41;12.27;;;10.10;;
53867;SDS011;41577;47.470;19.080;2023-02-18T00:03:52;16.10;;;10.00;;
53867;SDS011;41577;47.470;19.080;2023-02-18T00:04:03;18.65;;;9.88;;
53867;SDS011;41577;47.470;19.080;2023-02-18T00:04:14;19.80;;;9.27;;
53867;SDS011;41577;47.470;19.080;2023-02-18T00:04:25;16.63;;;9.15;;
53867;SDS011;41577;47.470;19.080;2023-02-18T00:04:37;14.45;;;8.88;;
53867;SDS011;41577;47.470;19.080;2023-02-18T00:04:48;14.65;;;9.18;;
53867;SDS011;41577;47.470;19.080;2023-02-18T00:05:00;15.48;;;9.45;;
53867;SDS011;41577;47.470;19.080;2023-02-18T00:05:11;17.25;;;9.38;;
53867;SDS011;41577;47.470;19.080;2023-02-18T00:05:23;15.68;;;9.10;;
53867;SDS011;41577;47.470;19.080;2023-02-18T00:05:34;13.57;;;9.13;;
53867;SDS011;41577;47.470;19.080;2023-02-18T00:05:45;12.32;;;8.80;;
53867;SDS011;41577;47.470;19.080;2023-02-18T00:05:58;11.60;;;8.60;;
53867;SDS011;41577;47.470;19.080;2023-02-18T00:06:10;14.48;;;8.63;;
53867;SDS011;41577;47.470;19.080;2023-02-18T00:06:23;16.08;;;9.15;;
53867;SDS011;41577;47.470;19.080;2023-02-18T00:06:36;14.57;;;9.82;;
53867;SDS011;41577;47.470;19.080;2023-02-18T00:06:47;14.38;;;9.85;;
53867;SDS011;41577;47.470;19.080;2023-02-18T00:06:58;14.25;;;9.43;;
53867;SDS011;41577;47.470;19.080;2023-02-18T00:07:09;13.45;;;8.93;;
53867;SDS011;41577;47.470;19.080;2023-02-18T00:07:21;14.18;;;8.82;;
53867;SDS011;41577;47.470;19.080;2023-02-18T00:07:33;16.73;;;9.20;;
53867;SDS011;41577;47.470;19.080;2023-02-18T00:07:46;19.65;;;9.38;;
53867;SDS011;41577;47.470;19.080;2023-02-18T00:07:58;22.80;;;8.98;;
53867;SDS011;41577;47.470;19.080;2023-02-18T00:08:10;20.65;;;9.05;;
53867;SDS011;41577;47.470;19.080;2023-02-18T00:08:24;13.88;;;9.23;;
53867;SDS011;41577;47.470;19.080;2023-02-18T00:08:35;13.24;;;8.98;;
53867;SDS011;41577;47.470;19.080;2023-02-18T00:08:50;13.60;;;8.75;;
53867;SDS011;41577;47.470;19.080;2023-02-18T00:09:02;11.10;;;8.80;;
53867;SDS011;41577;47.470;19.080;2023-02-18T00:09:15;14.05;;;8.80;;
53867;SDS011;41577;47.470;19.080;2023-02-18T00:09:27;18.00;;;8.55;;
53867;SDS011;41577;47.470;19.080;2023-02-18T00:09:39;24.40;;;8.68;;
53867;SDS011;41577;47.470;19.080;2023-02-18T00:09:51;24.77;;;8.57;;
53867;SDS011;41577;47.470;19.080;2023-02-18T00:10:02;23.98;;;8.73;;
53867;SDS011;41577;47.470;19.080;2023-02-18T00:10:15;18.55;;;8.73;;
53867;SDS011;41577;47.470;19.080;2023-02-18T00:10:26;13.00;;;8.73;;
53867;SDS011;41577;47.470;19.080;2023-02-18T00:10:41;15.15;;;8.65;;
53867;SDS011;41577;47.470;19.080;2023-02-18T00:10:53;15.07;;;8.90;;
53867;SDS011;41577;47.470;19.080;2023-02-18T00:11:04;12.98;;;8.98;;
53867;SDS011;41577;47.470;19.080;2023-02-18T00:11:16;12.13;;;8.95;;
53867;SDS011;41577;47.470;19.080;2023-02-18T00:11:30;12.23;;;8.38;;
53867;SDS011;41577;47.470;19.080;2023-02-18T00:11:43;11.35;;;8.15;;
53867;SDS011;41577;47.470;19.080;2023-02-18T00:11:54;10.10;;;8.05;;
53867;SDS011;41577;47.470;19.080;2023-02-18T00:12:05;9.88;;;8.25;;
53867;SDS011;41577;47.470;19.080;2023-02-18T00:12:17;10.27;;;8.27;;
53867;SDS011;41577;47.470;19.080;2023-02-18T00:12:29;9.57;;;8.10;;
53867;SDS011;41577;47.470;19.080;2023-02-18T00:12:40;10.43;;;7.82;;
53867;SDS011;41577;47.470;19.080;2023-02-18T00:12:53;12.25;;;8.25;;
53867;SDS011;41577;47.470;19.080;2023-02-18T00:13:04;13.05;;;8.63;;
53867;SDS011;41577;47.470;19.080;2023-02-18T00:13:15;17.30;;;8.40;;
53867;SDS011;41577;47.470;19.080;2023-02-18T00:13:26;17.85;;;8.55;;
53867;SDS011;41577;47.470;19.080;2023-02-18T00:13:38;17.27;;;8.38;;
53867;SDS011;41577;47.470;19.080;2023-02-18T00:13:49;13.45;;;8.32;;
53867;SDS011;41577;47.470;19.080;2023-02-18T00:14:02;14.05;;;7.95;;
53867;SDS011;41577;47.470;19.080;2023-02-18T00:14:15;16.08;;;7.95;;
53867;SDS011;41577;47.470;19.080;2023-02-18T00:14:26;15.15;;;8.02;;
53867;SDS011;41577;47.470;19.080;2023-02-18T00:14:37;16.27;;;7.68;;
53867;SDS011;41577;47.470;19.080;2023-02-18T00:14:48;13.85;;;7.95;;
53867;SDS011;41577;47.470;19.080;2023-02-18T00:15:00;18.80;;;8.07;;
53867;SDS011;41577;47.470;19.080;2023-02-18T00:15:11;19.75;;;8.25;;
53867;SDS011;41577;47.470;19.080;2023-02-18T00:15:22;14.88;;;8.10;;
53867;SDS011;41577;47.470;19.080;2023-02-18T00:15:33;12.73;;;7.70;;
53867;SDS011;41577;47.470;19.080;2023-02-18T00:15:44;12.40;;;7.65;;
53867;SDS011;41577;47.470;19.080;2023-02-18T00:15:59;14.07;;;7.38;;
53867;SDS011;41577;47.470;19.080;2023-02-18T00:16:11;14.43;;;7.65;;
53867;SDS011;41577;47.470;19.080;2023-02-18T00:16:22;14.13;;;7.65;;
53867;SDS011;41577;47.470;19.080;2023-02-18T00:16:34;12.02;;;7.68;;
53867;SDS011;41577;47.470;19.080;2023-02-18T00:16:47;13.90;;;7.97;;
53867;SDS011;41577;47.470;19.080;2023-02-18T00:16:58;14.00;;;7.95;;
53867;SDS011;41577;47.470;19.080;2023-02-18T00:17:09;15.98;;;7.95;;
53867;SDS011;41577;47.470;19.080;2023-02-18T00:17:20;14.55;;;7.70;;
53867;SDS011;41577;47.470;19.080;2023-02-18T00:17:31;14.02;;;7.50;;
53867;SDS011;41577;47.470;19.080;2023-02-18T00:17:42;15.52;;;7.63;;
53867;SDS011;41577;47.470;19.080;2023-02-18T00:17:53;14.13;;;7.50;;
53867;SDS011;41577;47.470;19.080;2023-02-18T00:18:05;11.00;;;7.40;;
53867;SDS011;41577;47.470;19.080;2023-02-18T00:18:17;10.65;;;7.30;;
53867;SDS011;41577;47.470;19.080;2023-02-18T00:18:28;14.55;;;7.45;;
53867;SDS011;41577;47.470;19.080;2023-02-18T00:18:39;15.68;;;7.75;;
53867;SDS011;41577;47.470;19.080;2023-02-18T00:18:53;14.57;;;7.78;;
53867;SDS011;41577;47.470;19.080;2023-02-18T00:19:04;13.77;;;7.35;;
53867;SDS011;41577;47.470;19.080;2023-02-18T00:19:18;12.88;;;6.95;;
53867;SDS011;41577;47.470;19.080;2023-02-18T00:19:29;12.60;;;7.00;;
53867;SDS011;41577;47.470;19.080;2023-02-18T00:19:41;11.32;;;7.28;;
53867;SDS011;41577;47.470;19.080;2023-02-18T00:19:52;11.55;;;7.53;;
53867;SDS011;41577;47.470;19.080;2023-02-18T00:20:05;10.65;;;7.25;;
53867;SDS011;41577;47.470;19.080;2023-02-18T00:20:17;10.60;;;6.80;;
53867;SDS011;41577;47.470;19.080;2023-02-18T00:20:29;11.20;;;6.82;;
53867;SDS011;41577;47.470;19.080;2023-02-18T00:20:40;11.40;;;7.22;;
53867;SDS011;41577;47.470;19.080;2023-02-18T00:20:51;12.30;;;7.10;;
53867;SDS011;41577;47.470;19.080;2023-02-18T00:21:02;13.80;;;7.00;;
53867;SDS011;41577;47.470;19.080;2023-02-18T00:21:13;14.63;;;7.07;;
53867;SDS011;41577;47.470;19.080;2023-02-18T00:21:25;12.63;;;7.50;;
53867;SDS011;41577;47.470;19.080;2023-02-18T00:21:36;12.02;;;7.32;;
53867;SDS011;41577;47.470;19.080;2023-02-18T00:21:48;10.93;;;7.28;;
53867;SDS011;41577;47.470;19.080;2023-02-18T00:21:59;12.35;;;7.03;;
53867;SDS011;41577;47.470;19.080;2023-02-18T00:22:11;10.00;;;7.00;;
53867;SDS011;41577;47.470;19.080;2023-02-18T00:22:21;10.30;;;7.13;;
53867;SDS011;41577;47.470;19.080;2023-02-18T00:22:33;12.07;;;7.55;;
53867;SDS011;41577;47.470;19.080;2023-02-18T00:22:44;15.20;;;7.65;;
53867;SDS011;41577;47.470;19.080;2023-02-18T00:22:55;14.02;;;7.32;;
53867;SDS011;41577;47.470;19.080;2023-02-18T00:23:07;13.48;;;7.22;;
53867;SDS011;41577;47.470;19.080;2023-02-18T00:23:19;13.02;;;7.63;;
53867;SDS011;41577;47.470;19.080;2023-02-18T00:23:29;12.73;;;7.70;;
53867;SDS011;41577;47.470;19.080;2023-02-18T00:23:41;12.75;;;7.43;;
53867;SDS011;41577;47.470;19.080;2023-02-18T00:23:52;10.10;;;7.28;;
53867;SDS011;41577;47.470;19.080;2023-02-18T00:24:03;9.35;;;6.85;;
53867;SDS011;41577;47.470;19.080;2023-02-18T00:24:18;9.98;;;6.97;;
53867;SDS011;41577;47.470;19.080;2023-02-18T00:24:29;9.60;;;6.82;;
53867;SDS011;41577;47.470;19.080;2023-02-18T00:24:40;8.73;;;6.63;;
53867;SDS011;41577;47.470;19.080;2023-02-18T00:24:51;10.88;;;6.70;;
53867;SDS011;41577;47.470;19.080;2023-02-18T00:25:02;13.10;;;7.03;;
53867;SDS011;41577;47.470;19.080;2023-02-18T00:25:15;14.90;;;7.10;;
53867;SDS011;41577;47.470;19.080;2023-02-18T00:25:26;12.70;;;6.67;;
53867;SDS011;41577;47.470;19.080;2023-02-18T00:25:36;10.85;;;6.32;;
53867;SDS011;41577;47.470;19.080;2023-02-18T00:25:48;10.32;;;6.40;;
53867;SDS011;41577;47.470;19.080;2023-02-18T00:25:59;11.70;;;6.70;;
53867;SDS011;41577;47.470;19.080;2023-02-18T00:26:11;11.57;;;7.13;;
53867;SDS011;41577;47.470;19.080;2023-02-18T00:26:24;11.38;;;7.55;;
53867;SDS011;41577;47.470;19.080;2023-02-18T00:26:35;12.10;;;7.70;;
53867;SDS011;41577;47.470;19.080;2023-02-18T00:26:48;11.68;;;7.72;;
53867;SDS011;41577;47.470;19.080;2023-02-18T00:27:00;10.77;;;7.20;;
53867;SDS011;41577;47.470;19.080;2023-02-18T00:27:11;8.73;;;6.90;;
53867;SDS011;41577;47.470;19.080;2023-02-18T00:27:24;12.75;;;7.32;;
53867;SDS011;41577;47.470;19.080;2023-02-18T00:27:35;13.82;;;7.18;;
53867;SDS011;41577;47.470;19.080;2023-02-18T00:27:47;14.45;;;6.85;;
53867;SDS011;41577;47.470;19.080;2023-02-18T00:27:58;12.65;;;6.80;;
53867;SDS011;41577;47.470;19.080;2023-02-18T00:28:10;17.05;;;6.95;;
53867;SDS011;41577;47.470;19.080;2023-02-18T00:28:22;21.45;;;7.15;;
53867;SDS011;41577;47.470;19.080;2023-02-18T00:28:33;19.83;;;7.28;;
53867;SDS011;41577;47.470;19.080;2023-02-18T00:28:44;10.75;;;6.78;;
53867;SDS011;41577;47.470;19.080;2023-02-18T00:28:56;10.13;;;6.45;;
53867;SDS011;41577;47.470;19.080;2023-02-18T00:29:08;12.48;;;6.65;;
53867;SDS011;41577;47.470;19.080;2023-02-18T00:29:19;12.68;;;7.13;;
53867;SDS011;41577;47.470;19.080;2023-02-18T00:29:33;11.82;;;7.05;;
53867;SDS011;41577;47.470;19.080;2023-02-18T00:29:45;10.48;;;6.50;;
53867;SDS011;41577;47.470;19.080;2023-02-18T00:29:57;9.52;;;6.45;;
53867;SDS011;41577;47.470;19.080;2023-02-18T00:30:10;11.30;;;6.70;;
53867;SDS011;41577;47.470;19.080;2023-02-18T00:30:21;10.80;;;6.60;;
53867;SDS011;41577;47.470;19.080;2023-02-18T00:30:48;12.05;;;6.70;;
53867;SDS011;41577;47.470;19.080;2023-02-18T00:31:04;12.77;;;6.70;;
53867;SDS011;41577;47.470;19.080;2023-02-18T00:31:16;11.98;;;6.35;;
53867;SDS011;41577;47.470;19.080;2023-02-18T00:31:29;10.45;;;6.10;;
53867;SDS011;41577;47.470;19.080;2023-02-18T00:31:43;11.00;;;6.07;;
53867;SDS011;41577;47.470;19.080;2023-02-18T00:31:54;10.82;;;6.07;;
53867;SDS011;41577;47.470;19.080;2023-02-18T00:32:06;11.02;;;6.18;;
53867;SDS011;41577;47.470;19.080;2023-02-18T00:32:17;10.18;;;6.38;;
53867;SDS011;41577;47.470;19.080;2023-02-18T00:32:28;10.90;;;6.10;;
53867;SDS011;41577;47.470;19.080;2023-02-18T00:32:40;12.02;;;5.95;;
53867;SDS011;41577;47.470;19.080;2023-02-18T00:32:50;9.90;;;5.78;;
53867;SDS011;41577;47.470;19.080;2023-02-18T00:33:01;10.38;;;5.95;;
53867;SDS011;41577;47.470;19.080;2023-02-18T00:33:12;9.57;;;5.80;;
53867;SDS011;41577;47.470;19.080;2023-02-18T00:33:23;9.60;;;5.57;;
53867;SDS011;41577;47.470;19.080;2023-02-18T00:33:34;8.38;;;5.15;;
53867;SDS011;41577;47.470;19.080;2023-02-18T00:33:45;11.35;;;5.25;;
53867;SDS011;41577;47.470;19.080;2023-02-18T00:33:56;9.20;;;5.20;;
53867;SDS011;41577;47.470;19.080;2023-02-18T00:34:08;10.07;;;5.35;;
53867;SDS011;41577;47.470;19.080;2023-02-18T00:34:20;7.57;;;5.22;;
53867;SDS011;41577;47.470;19.080;2023-02-18T00:34:31;9.30;;;5.45;;
53867;SDS011;41577;47.470;19.080;2023-02-18T00:34:42;10.55;;;5.57;;
53867;SDS011;41577;47.470;19.080;2023-02-18T00:34:53;12.02;;;5.35;;
53867;SDS011;41577;47.470;19.080;2023-02-18T00:35:04;13.02;;;5.45;;
53867;SDS011;41577;47.470;19.080;2023-02-18T00:35:18;17.60;;;5.70;;
53867;SDS011;41577;47.470;19.080;2023-02-18T00:35:29;17.17;;;5.57;;
53867;SDS011;41577;47.470;19.080;2023-02-18T00:35:40;18.85;;;5.50;;
53867;SDS011;41577;47.470;19.080;2023-02-18T00:35:51;16.95;;;5.70;;
53867;SDS011;41577;47.470;19.080;2023-02-18T00:36:10;18.58;;;5.78;;
53867;SDS011;41577;47.470;19.080;2023-02-18T00:36:23;14.40;;;5.40;;
53867;SDS011;41577;47.470;19.080;2023-02-18T00:36:36;9.35;;;5.18;;
53867;SDS011;41577;47.470;19.080;2023-02-18T00:36:48;10.83;;;5.20;;
53867;SDS011;41577;47.470;19.080;2023-02-18T00:37:00;10.27;;;5.20;;
53867;SDS011;41577;47.470;19.080;2023-02-18T00:37:12;9.63;;;5.28;;
53867;SDS011;41577;47.470;19.080;2023-02-18T00:37:23;11.15;;;5.15;;
53867;SDS011;41577;47.470;19.080;2023-02-18T00:37:35;16.77;;;5.22;;
53867;SDS011;41577;47.470;19.080;2023-02-18T00:37:46;16.77;;;5.15;;
53867;SDS011;41577;47.470;19.080;2023-02-18T00:38:00;13.73;;;5.05;;
53867;SDS011;41577;47.470;19.080;2023-02-18T00:38:10;13.05;;;5.10;;
53867;SDS011;41577;47.470;19.080;2023-02-18T00:38:21;11.05;;;5.28;;
53867;SDS011;41577;47.470;19.080;2023-02-18T00:38:32;7.03;;;5.00;;
53867;SDS011;41577;47.470;19.080;2023-02-18T00:38:43;10.32;;;4.90;;
53867;SDS011;41577;47.470;19.080;2023-02-18T00:38:56;10.40;;;4.72;;
53867;SDS011;41577;47.470;19.080;2023-02-18T00:39:08;8.98;;;4.68;;
53867;SDS011;41577;47.470;19.080;2023-02-18T00:39:21;6.85;;;4.75;;
53867;SDS011;41577;47.470;19.080;2023-02-18T00:39:32;6.85;;;4.72;;
53867;SDS011;41577;47.470;19.080;2023-02-18T00:39:43;7.97;;;4.90;;
53867;SDS011;41577;47.470;19.080;2023-02-18T00:39:54;6.95;;;5.10;;
53867;SDS011;41577;47.470;19.080;2023-02-18T00:40:06;9.68;;;5.20;;
53867;SDS011;41577;47.470;19.080;2023-02-18T00:40:19;10.43;;;4.97;;
53867;SDS011;41577;47.470;19.080;2023-02-18T00:40:31;11.30;;;5.03;;
53867;SDS011;41577;47.470;19.080;2023-02-18T00:40:47;13.57;;;5.32;;
53867;SDS011;41577;47.470;19.080;2023-02-18T00:40:58;11.73;;;5.45;;
53867;SDS011;41577;47.470;19.080;2023-02-18T00:41:09;13.27;;;5.30;;
53867;SDS011;41577;47.470;19.080;2023-02-18T00:41:21;10.45;;;4.95;;
53867;SDS011;41577;47.470;19.080;2023-02-18T00:41:33;10.10;;;4.97;;
53867;SDS011;41577;47.470;19.080;2023-02-18T00:41:44;10.38;;;5.30;;
53867;SDS011;41577;47.470;19.080;2023-02-18T00:41:55;10.20;;;5.13;;
53867;SDS011;41577;47.470;19.080;2023-02-18T00:42:06;9.23;;;4.80;;
53867;SDS011;41577;47.470;19.080;2023-02-18T00:42:17;7.88;;;4.53;;
53867;SDS011;41577;47.470;19.080;2023-02-18T00:42:28;8.35;;;4.90;;
53867;SDS011;41577;47.470;19.080;2023-02-18T00:42:40;10.05;;;5.00;;
53867;SDS011;41577;47.470;19.080;2023-02-18T00:42:52;10.57;;;4.97;;
53867;SDS011;41577;47.470;19.080;2023-02-18T00:43:03;12.35;;;4.90;;
53867;SDS011;41577;47.470;19.080;2023-02-18T00:43:14;11.63;;;4.72;;
53867;SDS011;41577;47.470;19.080;2023-02-18T00:43:25;12.82;;;4.70;;
53867;SDS011;41577;47.470;19.080;2023-02-18T00:43:37;9.05;;;4.40;;
53867;SDS011;41577;47.470;19.080;2023-02-18T00:43:49;6.70;;;4.22;;
53867;SDS011;41577;47.470;19.080;2023-02-18T00:44:02;10.00;;;4.30;;
53867;SDS011;41577;47.470;19.080;2023-02-18T00:44:14;8.45;;;4.45;;
53867;SDS011;41577;47.470;19.080;2023-02-18T00:44:25;9.88;;;4.57;;
53867;SDS011;41577;47.470;19.080;2023-02-18T00:44:41;11.05;;;4.60;;
53867;SDS011;41577;47.470;19.080;2023-02-18T00:44:52;11.23;;;4.53;;
53867;SDS011;41577;47.470;19.080;2023-02-18T00:45:05;11.93;;;4.55;;
53867;SDS011;41577;47.470;19.080;2023-02-18T00:45:17;13.50;;;4.72;;
53867;SDS011;41577;47.470;19.080;2023-02-18T00:45:28;13.95;;;4.80;;
53867;SDS011;41577;47.470;19.080;2023-02-18T00:45:39;11.35;;;4.72;;
53867;SDS011;41577;47.470;19.080;2023-02-18T00:45:50;8.90;;;4.60;;
53867;SDS011;41577;47.470;19.080;2023-02-18T00:46:01;9.20;;;4.60;;
53867;SDS011;41577;47.470;19.080;2023-02-18T00:46:13;10.07;;;4.80;;
53867;SDS011;41577;47.470;19.080;2023-02-18T00:46:25;8.25;;;4.82;;
53867;SDS011;41577;47.470;19.080;2023-02-18T00:46:37;8.00;;;4.43;;
53867;SDS011;41577;47.470;19.080;2023-02-18T00:46:50;8.40;;;4.50;;
53867;SDS011;41577;47.470;19.080;2023-02-18T00:47:01;10.43;;;4.67;;
53867;SDS011;41577;47.470;19.080;2023-02-18T00:47:12;8.55;;;4.55;;
53867;SDS011;41577;47.470;19.080;2023-02-18T00:47:23;6.72;;;4.18;;
53867;SDS011;41577;47.470;19.080;2023-02-18T00:47:34;4.68;;;4.00;;
53867;SDS011;41577;47.470;19.080;2023-02-18T00:47:45;5.23;;;4.07;;
53867;SDS011;41577;47.470;19.080;2023-02-18T00:47:57;7.40;;;3.97;;
53867;SDS011;41577;47.470;19.080;2023-02-18T00:48:08;15.82;;;4.35;;
53867;SDS011;41577;47.470;19.080;2023-02-18T00:48:19;17.73;;;4.40;;
53867;SDS011;41577;47.470;19.080;2023-02-18T00:48:30;17.00;;;4.73;;
53867;SDS011;41577;47.470;19.080;2023-02-18T00:48:41;12.20;;;4.50;;
53867;SDS011;41577;47.470;19.080;2023-02-18T00:48:53;15.40;;;4.47;;
53867;SDS011;41577;47.470;19.080;2023-02-18T00:49:04;13.40;;;4.40;;
53867;SDS011;41577;47.470;19.080;2023-02-18T00:49:16;18.38;;;4.47;;
53867;SDS011;41577;47.470;19.080;2023-02-18T00:49:29;17.70;;;4.43;;
53867;SDS011;41577;47.470;19.080;2023-02-18T00:49:39;17.77;;;4.38;;
53867;SDS011;41577;47.470;19.080;2023-02-18T00:49:50;13.13;;;4.35;;
53867;SDS011;41577;47.470;19.080;2023-02-18T00:50:02;10.52;;;4.25;;
53867;SDS011;41577;47.470;19.080;2023-02-18T00:50:12;7.07;;;4.32;;
53867;SDS011;41577;47.470;19.080;2023-02-18T00:50:23;9.27;;;4.40;;
53867;SDS011;41577;47.470;19.080;2023-02-18T00:50:35;11.32;;;4.55;;
53867;SDS011;41577;47.470;19.080;2023-02-18T00:50:46;13.38;;;4.63;;
53867;SDS011;41577;47.470;19.080;2023-02-18T00:50:57;13.50;;;4.55;;
53867;SDS011;41577;47.470;19.080;2023-02-18T00:51:08;12.13;;;4.53;;
53867;SDS011;41577;47.470;19.080;2023-02-18T00:51:20;12.73;;;4.30;;
53867;SDS011;41577;47.470;19.080;2023-02-18T00:51:32;14.68;;;4.30;;
53867;SDS011;41577;47.470;19.080;2023-02-18T00:51:43;16.67;;;4.43;;
53867;SDS011;41577;47.470;19.080;2023-02-18T00:51:54;12.55;;;4.40;;
53867;SDS011;41577;47.470;19.080;2023-02-18T00:52:05;12.63;;;4.13;;
53867;SDS011;41577;47.470;19.080;2023-02-18T00:52:17;13.63;;;4.20;;
53867;SDS011;41577;47.470;19.080;2023-02-18T00:52:28;14.57;;;4.32;;
53867;SDS011;41577;47.470;19.080;2023-02-18T00:52:38;13.75;;;4.50;;
53867;SDS011;41577;47.470;19.080;2023-02-18T00:52:51;14.45;;;4.57;;
53867;SDS011;41577;47.470;19.080;2023-02-18T00:53:02;12.02;;;4.20;;
53867;SDS011;41577;47.470;19.080;2023-02-18T00:53:14;5.65;;;3.80;;
53867;SDS011;41577;47.470;19.080;2023-02-18T00:53:25;5.27;;;3.90;;
53867;SDS011;41577;47.470;19.080;2023-02-18T00:53:35;5.55;;;4.00;;
53867;SDS011;41577;47.470;19.080;2023-02-18T00:53:47;9.68;;;4.20;;
53867;SDS011;41577;47.470;19.080;2023-02-18T00:53:58;13.38;;;4.45;;
53867;SDS011;41577;47.470;19.080;2023-02-18T00:54:08;16.00;;;4.35;;
53867;SDS011;41577;47.470;19.080;2023-02-18T00:54:19;11.68;;;4.13;;
53867;SDS011;41577;47.470;19.080;2023-02-18T00:54:31;8.73;;;3.72;;
53867;SDS011;41577;47.470;19.080;2023-02-18T00:54:42;8.38;;;3.67;;
53867;SDS011;41577;47.470;19.080;2023-02-18T00:54:53;9.85;;;3.65;;
53867;SDS011;41577;47.470;19.080;2023-02-18T00:55:04;11.43;;;3.80;;
53867;SDS011;41577;47.470;19.080;2023-02-18T00:55:17;9.35;;;3.60;;
53867;SDS011;41577;47.470;19.080;2023-02-18T00:55:29;7.53;;;3.75;;
53867;SDS011;41577;47.470;19.080;2023-02-18T00:55:40;6.10;;;3.80;;
53867;SDS011;41577;47.470;19.080;2023-02-18T00:55:53;6.22;;;3.72;;
53867;SDS011;41577;47.470;19.080;2023-02-18T00:56:04;6.32;;;3.50;;
53867;SDS011;41577;47.470;19.080;2023-02-18T00:56:15;6.80;;;3.42;;
53867;SDS011;41577;47.470;19.080;2023-02-18T00:56:27;7.05;;;3.53;;
53867;SDS011;41577;47.470;19.080;2023-02-18T00:56:38;9.98;;;3.70;;
53867;SDS011;41577;47.470;19.080;2023-02-18T00:56:49;8.30;;;3.73;;
53867;SDS011;41577;47.470;19.080;2023-02-18T00:57:00;8.82;;;3.50;;
53867;SDS011;41577;47.470;19.080;2023-02-18T00:57:10;7.30;;;3.50;;
53867;SDS011;41577;47.470;19.080;2023-02-18T00:57:21;8.70;;;3.63;;
53867;SDS011;41577;47.470;19.080;2023-02-18T00:57:33;7.95;;;3.55;;
53867;SDS011;41577;47.470;19.080;2023-02-18T00:57:43;6.83;;;3.87;;
53867;SDS011;41577;47.470;19.080;2023-02-18T00:57:55;5.28;;;3.75;;
53867;SDS011;41577;47.470;19.080;2023-02-18T00:58:06;6.53;;;3.80;;
53867;SDS011;41577;47.470;19.080;2023-02-18T00:58:17;5.70;;;3.58;;
53867;SDS011;41577;47.470;19.080;2023-02-18T00:58:28;5.50;;;3.53;;
53867;SDS011;41577;47.470;19.080;2023-02-18T00:58:39;3.83;;;3.38;;
53867;SDS011;41577;47.470;19.080;2023-02-18T00:58:51;5.40;;;3.30;;
53867;SDS011;41577;47.470;19.080;2023-02-18T00:59:03;6.00;;;3.30;;
53867;SDS011;41577;47.470;19.080;2023-02-18T00:59:14;6.32;;;3.33;;
53867;SDS011;41577;47.470;19.080;2023-02-18T00:59:25;5.10;;;3.50;;
53867;SDS011;41577;47.470;19.080;2023-02-18T00:59:36;6.65;;;3.55;;
53867;SDS011;41577;47.470;19.080;2023-02-18T00:59:47;10.10;;;3.58;;
53867;SDS011;41577;47.470;19.080;2023-02-18T00:59:58;9.82;;;3.30;;
53867;SDS011;41577;47.470;19.080;2023-02-18T01:00:09;9.85;;;3.30;;
53867;SDS011;41577;47.470;19.080;2023-02-18T01:00:20;8.02;;;3.20;;
53867;SDS011;41577;47.470;19.080;2023-02-18T01:00:31;9.13;;;3.47;;
53867;SDS011;41577;47.470;19.080;2023-02-18T01:00:42;11.83;;;3.70;;
53867;SDS011;41577;47.470;19.080;2023-02-18T01:00:53;12.13;;;3.70;;
53867;SDS011;41577;47.470;19.080;2023-02-18T01:01:05;13.30;;;3.50;;
53867;SDS011;41577;47.470;19.080;2023-02-18T01:01:17;11.43;;;3.50;;
53867;SDS011;41577;47.470;19.080;2023-02-18T01:01:29;19.42;;;3.65;;
53867;SDS011;41577;47.470;19.080;2023-02-18T01:01:40;32.30;;;3.72;;
53867;SDS011;41577;47.470;19.080;2023-02-18T01:01:51;33.63;;;3.75;;
53867;SDS011;41577;47.470;19.080;2023-02-18T01:02:04;19.13;;;3.50;;
53867;SDS011;41577;47.470;19.080;2023-02-18T01:02:15;15.25;;;3.47;;
53867;SDS011;41577;47.470;19.080;2023-02-18T01:02:27;14.40;;;3.40;;
53867;SDS011;41577;47.470;19.080;2023-02-18T01:02:38;16.90;;;3.60;;
53867;SDS011;41577;47.470;19.080;2023-02-18T01:02:49;15.35;;;3.53;;
53867;SDS011;41577;47.470;19.080;2023-02-18T01:03:00;13.68;;;3.38;;
53867;SDS011;41577;47.470;19.080;2023-02-18T01:03:12;10.77;;;3.15;;
53867;SDS011;41577;47.470;19.080;2023-02-18T01:03:24;9.25;;;3.10;;
53867;SDS011;41577;47.470;19.080;2023-02-18T01:03:35;10.85;;;3.28;;
53867;SDS011;41577;47.470;19.080;2023-02-18T01:03:48;15.07;;;3.20;;
53867;SDS011;41577;47.470;19.080;2023-02-18T01:03:59;14.25;;;3.08;;
53867;SDS011;41577;47.470;19.080;2023-02-18T01:04:10;10.40;;;2.90;;
53867;SDS011;41577;47.470;19.080;2023-02-18T01:04:21;8.00;;;3.07;;
53867;SDS011;41577;47.470;19.080;2023-02-18T01:04:32;7.40;;;2.90;;
53867;SDS011;41577;47.470;19.080;2023-02-18T01:04:44;6.65;;;2.80;;
53867;SDS011;41577;47.470;19.080;2023-02-18T01:04:55;5.90;;;2.92;;
53867;SDS011;41577;47.470;19.080;2023-02-18T01:05:06;7.82;;;2.90;;
53867;SDS011;41577;47.470;19.080;2023-02-18T01:05:18;9.02;;;3.00;;
53867;SDS011;41577;47.470;19.080;2023-02-18T01:05:29;10.65;;;2.95;;
53867;SDS011;41577;47.470;19.080;2023-02-18T01:05:40;12.27;;;3.10;;
53867;SDS011;41577;47.470;19.080;2023-02-18T01:05:52;13.55;;;3.22;;
53867;SDS011;41577;47.470;19.080;2023-02-18T01:06:03;17.17;;;3.20;;
53867;SDS011;41577;47.470;19.080;2023-02-18T01:06:16;16.83;;;3.13;;
53867;SDS011;41577;47.470;19.080;2023-02-18T01:06:27;10.90;;;2.92;;
53867;SDS011;41577;47.470;19.080;2023-02-18T01:06:38;12.90;;;2.90;;
53867;SDS011;41577;47.470;19.080;2023-02-18T01:06:49;12.52;;;2.72;;
53867;SDS011;41577;47.470;19.080;2023-02-18T01:07:01;12.70;;;2.78;;
53867;SDS011;41577;47.470;19.080;2023-02-18T01:07:12;9.70;;;2.67;;
53867;SDS011;41577;47.470;19.080;2023-02-18T01:07:23;8.60;;;2.70;;
53867;SDS011;41577;47.470;19.080;2023-02-18T01:07:34;10.00;;;2.80;;
53867;SDS011;41577;47.470;19.080;2023-02-18T01:07:45;11.27;;;2.63;;
53867;SDS011;41577;47.470;19.080;2023-02-18T01:07:56;10.50;;;2.92;;
53867;SDS011;41577;47.470;19.080;2023-02-18T01:08:08;11.93;;;3.20;;
53867;SDS011;41577;47.470;19.080;2023-02-18T01:08:19;12.88;;;3.42;;